createdAt,value
2023-04-12T00:00:55.728Z,0.30
2023-04-12T00:03:22.614Z,0.35
2023-04-12T00:05:54.989Z,0.35
2023-04-12T00:08:33.566Z,0.60
2023-04-12T00:11:00.895Z,0.40
2023-04-12T00:13:27.914Z,0.40
2023-04-12T00:15:54.551Z,0.50
2023-04-12T00:18:25.239Z,0.45
2023-04-12T00:20:52.497Z,0.45
2023-04-12T00:23:19.080Z,0.38
2023-04-12T00:25:45.664Z,0.30
2023-04-12T00:28:12.247Z,0.28
2023-04-12T00:30:38.850Z,0.20
2023-04-12T00:33:05.643Z,0.22
2023-04-12T00:35:32.252Z,0.30
2023-04-12T00:37:58.848Z,0.37
2023-04-12T00:40:25.526Z,0.20
2023-04-12T00:42:52.068Z,0.20
2023-04-12T00:45:18.696Z,0.20
2023-04-12T00:47:45.451Z,0.10
2023-04-12T00:50:12.162Z,0.10
2023-04-12T00:52:39.921Z,0.10
2023-04-12T00:55:08.295Z,0.17
2023-04-12T00:57:38.052Z,0.10
2023-04-12T01:00:08.874Z,0.10
2023-04-12T01:02:39.430Z,0.17
2023-04-12T01:05:07.333Z,0.20
2023-04-12T01:07:47.748Z,0.30
2023-04-12T01:10:27.377Z,0.55
2023-04-12T01:13:11.448Z,0.22
2023-04-12T01:15:44.482Z,0.20
2023-04-12T01:18:17.720Z,0.30
2023-04-12T01:20:53.771Z,0.20
2023-04-12T01:23:39.996Z,0.40
2023-04-12T01:26:28.279Z,0.38
2023-04-12T01:28:56.533Z,0.30
2023-04-12T01:31:26.106Z,0.40
2023-04-12T01:33:54.752Z,0.25
2023-04-12T01:36:24.049Z,0.20
2023-04-12T01:38:51.625Z,0.30
2023-04-12T01:41:18.342Z,0.30
2023-04-12T01:43:46.471Z,0.30
2023-04-12T01:46:16.913Z,0.30
2023-04-12T01:48:50.338Z,0.20
2023-04-12T01:51:34.642Z,0.68
2023-04-12T01:54:11.477Z,0.20
2023-04-12T01:56:41.606Z,0.30
2023-04-12T01:59:09.677Z,0.30
2023-04-12T02:01:36.902Z,0.30
2023-04-12T02:04:06.616Z,0.43
2023-04-12T02:06:34.550Z,0.20
2023-04-12T02:09:02.707Z,0.20
2023-04-12T02:11:29.610Z,0.28
2023-04-12T02:13:56.463Z,0.30
2023-04-12T02:16:24.131Z,0.50
2023-04-12T02:18:51.787Z,0.27
2023-04-12T02:21:18.869Z,0.20
2023-04-12T02:23:45.398Z,0.30
2023-04-12T02:26:11.951Z,0.40
2023-04-12T02:28:39.434Z,0.52
2023-04-12T02:31:07.083Z,0.40
2023-04-12T02:33:34.812Z,0.30
2023-04-12T02:36:02.813Z,0.30
2023-04-12T02:38:29.756Z,0.30
2023-04-12T02:40:57.483Z,0.25
2023-04-12T02:43:26.062Z,0.23
2023-04-12T02:45:52.635Z,0.20
2023-04-12T02:48:19.232Z,0.20
2023-04-12T02:50:45.762Z,0.20
2023-04-12T02:53:12.252Z,0.38
2023-04-12T02:55:39.009Z,0.30
2023-04-12T02:58:06.003Z,0.50
2023-04-12T03:00:32.498Z,0.30
2023-04-12T03:03:01.514Z,0.30
2023-04-12T03:05:28.303Z,0.22
2023-04-12T03:07:55.330Z,0.30
2023-04-12T03:10:21.998Z,0.40
2023-04-12T03:12:48.488Z,0.28
2023-04-12T03:15:15.131Z,0.22
2023-04-12T03:17:42.930Z,0.25
2023-04-12T03:20:10.226Z,0.20
2023-04-12T03:22:37.314Z,0.40
2023-04-12T03:25:05.163Z,0.30
2023-04-12T03:27:31.906Z,0.20
2023-04-12T03:29:58.394Z,0.60
2023-04-12T03:32:25.744Z,0.30
2023-04-12T03:34:52.345Z,0.30
2023-04-12T03:37:19.610Z,0.20
2023-04-12T03:39:49.189Z,0.20
2023-04-12T03:42:29.464Z,0.20
2023-04-12T03:44:58.683Z,0.20
2023-04-12T03:47:25.498Z,0.20
2023-04-12T03:50:10.423Z,0.40
2023-04-12T03:52:38.317Z,0.20
2023-04-12T03:55:08.001Z,0.20
2023-04-12T03:57:34.973Z,0.50
2023-04-12T04:00:01.688Z,0.20
2023-04-12T04:02:28.644Z,0.13
2023-04-12T04:04:55.472Z,0.38
2023-04-12T04:07:22.401Z,0.20
2023-04-12T04:09:50.222Z,0.30
2023-04-12T04:12:16.994Z,0.30
2023-04-12T04:14:44.124Z,0.20
2023-04-12T04:17:11.040Z,0.40
2023-04-12T04:19:37.715Z,0.30
2023-04-12T04:22:04.714Z,0.20
2023-04-12T04:24:31.206Z,0.20
2023-04-12T04:26:58.765Z,0.10
2023-04-12T04:29:25.938Z,0.28
2023-04-12T04:31:54.155Z,0.20
2023-04-12T04:34:22.208Z,0.20
2023-04-12T04:36:48.857Z,0.40
2023-04-12T04:39:15.834Z,0.20
2023-04-12T04:41:42.542Z,0.28
2023-04-12T04:44:10.474Z,0.40
2023-04-12T04:46:38.095Z,0.30
2023-04-12T04:49:05.612Z,0.30
2023-04-12T04:51:32.405Z,0.20
2023-04-12T04:54:00.199Z,0.40
2023-04-12T04:56:26.752Z,0.40
2023-04-12T04:58:55.401Z,0.20
2023-04-12T05:01:28.760Z,0.20
2023-04-12T05:03:55.989Z,0.20
2023-04-12T05:06:23.989Z,0.30
2023-04-12T05:08:52.271Z,0.30
2023-04-12T05:11:20.267Z,0.30
2023-04-12T05:13:48.447Z,0.20
2023-04-12T05:16:14.960Z,0.40
2023-04-12T05:18:41.571Z,0.35
2023-04-12T05:21:08.116Z,0.30
2023-04-12T05:23:37.573Z,0.53
2023-04-12T05:26:04.952Z,0.30
2023-04-12T05:28:31.714Z,0.20
2023-04-12T05:30:58.572Z,0.30
2023-04-12T05:33:25.449Z,0.20
2023-04-12T05:35:52.628Z,0.50
2023-04-12T05:38:19.220Z,0.20
2023-04-12T05:40:45.946Z,0.30
2023-04-12T05:43:13.029Z,0.30
2023-04-12T05:45:40.716Z,0.30
2023-04-12T05:48:07.782Z,0.30
2023-04-12T05:50:34.426Z,0.40
2023-04-12T05:53:01.787Z,0.38
2023-04-12T05:55:29.285Z,0.30
2023-04-12T05:57:56.960Z,0.22
2023-04-12T06:00:24.167Z,0.20
2023-04-12T06:02:51.651Z,0.20
2023-04-12T06:05:18.358Z,0.30
2023-04-12T06:07:48.870Z,1.83
2023-04-12T06:10:17.252Z,0.47
2023-04-12T06:12:44.239Z,0.30
2023-04-12T06:15:11.395Z,0.32
2023-04-12T06:17:38.334Z,0.28
2023-04-12T06:20:08.540Z,0.50
2023-04-12T06:22:36.105Z,0.50
2023-04-12T06:25:03.797Z,0.30
2023-04-12T06:27:30.598Z,0.30
2023-04-12T06:29:57.514Z,0.20
2023-04-12T06:32:25.210Z,0.20
2023-04-12T06:34:52.069Z,0.20
2023-04-12T06:37:18.587Z,0.40
2023-04-12T06:39:45.297Z,0.30
2023-04-12T06:42:14.392Z,0.30
2023-04-12T06:44:41.491Z,0.30
2023-04-12T06:47:08.372Z,0.50
2023-04-12T06:49:35.121Z,0.30
2023-04-12T06:52:01.650Z,0.30
2023-04-12T06:54:29.262Z,0.30
2023-04-12T06:56:57.291Z,0.30
2023-04-12T06:59:23.958Z,0.30
2023-04-12T07:01:50.650Z,0.30
2023-04-12T07:04:17.256Z,0.50
2023-04-12T07:06:43.927Z,0.30
2023-04-12T07:09:10.641Z,0.70
2023-04-12T07:11:37.204Z,0.35
2023-04-12T07:14:04.138Z,0.30
2023-04-12T07:16:32.803Z,0.50
2023-04-12T07:19:00.663Z,0.50
2023-04-12T07:21:27.778Z,0.45
2023-04-12T07:23:55.868Z,0.50
2023-04-12T07:26:22.858Z,0.60
2023-04-12T07:28:49.604Z,0.55
2023-04-12T07:31:16.263Z,0.70
2023-04-12T07:33:43.655Z,0.80
2023-04-12T07:36:11.185Z,0.80
2023-04-12T07:38:37.840Z,0.60
2023-04-12T07:41:06.609Z,1.13
2023-04-12T07:43:33.282Z,0.77
2023-04-12T07:46:00.073Z,0.90
2023-04-12T07:48:26.683Z,0.93
2023-04-12T07:50:53.211Z,0.70
2023-04-12T07:53:23.213Z,1.30
2023-04-12T07:55:51.188Z,1.23
2023-04-12T07:58:18.715Z,0.70
2023-04-12T08:00:46.702Z,0.77
2023-04-12T08:03:14.642Z,0.83
2023-04-12T08:05:42.117Z,0.90
2023-04-12T08:08:10.307Z,0.90
2023-04-12T08:10:38.319Z,0.90
2023-04-12T08:13:06.213Z,1.90
2023-04-12T08:15:34.237Z,6.73
2023-04-12T08:18:01.798Z,7.70
2023-04-12T08:20:28.465Z,4.90
2023-04-12T08:22:55.079Z,1.40
2023-04-12T08:25:22.264Z,0.98
2023-04-12T08:27:50.442Z,1.43
2023-04-12T08:30:18.105Z,1.10
2023-04-12T08:32:44.936Z,1.90
2023-04-12T08:35:12.091Z,0.90
2023-04-12T08:37:38.967Z,0.93
2023-04-12T08:40:08.057Z,0.80
2023-04-12T08:42:36.989Z,0.75
2023-04-12T08:45:06.909Z,0.93
2023-04-12T08:47:36.777Z,0.73
2023-04-12T08:50:05.837Z,1.17
2023-04-12T08:52:34.709Z,0.80
2023-04-12T08:55:04.226Z,1.00
2023-04-12T08:57:33.016Z,1.77
2023-04-12T09:00:01.925Z,0.93
2023-04-12T09:02:28.866Z,1.33
2023-04-12T09:04:56.127Z,0.67
2023-04-12T09:07:23.453Z,0.85
2023-04-12T09:09:50.803Z,0.90
2023-04-12T09:12:20.068Z,0.98
2023-04-12T09:14:46.861Z,1.60
2023-04-12T09:17:25.875Z,1.47
2023-04-12T09:19:53.527Z,0.90
2023-04-12T09:22:32.826Z,1.08
2023-04-12T09:24:59.477Z,1.30
2023-04-12T09:27:28.440Z,0.60
2023-04-12T09:30:09.148Z,0.80
2023-04-12T09:32:36.399Z,0.70
2023-04-12T09:35:06.441Z,1.02
2023-04-12T09:37:33.046Z,0.65
2023-04-12T09:40:02.031Z,0.93
2023-04-12T09:42:34.133Z,0.90
2023-04-12T09:45:20.265Z,0.50
2023-04-12T09:47:47.266Z,0.63
2023-04-12T09:50:23.106Z,0.80
2023-04-12T09:52:50.368Z,0.95
2023-04-12T09:55:18.140Z,0.97
2023-04-12T09:57:45.582Z,0.68
2023-04-12T10:00:18.656Z,1.08
2023-04-12T10:02:49.132Z,0.68
2023-04-12T10:05:19.926Z,0.77
2023-04-12T10:07:47.978Z,1.20
2023-04-12T10:10:17.707Z,0.80
2023-04-12T10:12:47.456Z,0.43
2023-04-12T10:15:17.858Z,0.82
2023-04-12T10:17:50.019Z,0.50
2023-04-12T10:20:26.105Z,1.27
2023-04-12T10:25:46.546Z,0.70
2023-04-12T10:31:29.962Z,2.42
2023-04-12T10:33:56.950Z,0.97
2023-04-12T10:36:51.393Z,1.17
2023-04-12T10:39:18.099Z,1.27
2023-04-12T10:42:18.717Z,1.67
2023-04-12T10:44:47.242Z,0.77
2023-04-12T10:47:14.946Z,0.80
2023-04-12T10:50:30.242Z,0.80
2023-04-12T10:53:10.133Z,1.85
2023-04-12T10:55:38.431Z,0.70
2023-04-12T10:58:05.573Z,0.73
2023-04-12T11:00:56.012Z,0.90
2023-04-12T11:03:27.025Z,0.73
2023-04-12T11:06:16.099Z,0.77
2023-04-12T11:08:58.792Z,0.90
2023-04-12T11:11:30.784Z,1.05
2023-04-12T11:13:59.551Z,2.23
2023-04-12T11:16:27.021Z,0.82
2023-04-12T11:18:56.166Z,0.60
2023-04-12T11:21:33.415Z,0.68
2023-04-12T11:24:02.657Z,0.98
2023-04-12T11:26:31.474Z,1.13
2023-04-12T11:29:08.901Z,0.88
2023-04-12T11:31:39.419Z,0.68
2023-04-12T11:34:09.635Z,1.02
2023-04-12T11:36:39.861Z,0.88
2023-04-12T11:39:12.417Z,0.50
2023-04-12T11:41:51.949Z,0.80
2023-04-12T11:44:21.738Z,0.90
2023-04-12T11:46:53.116Z,0.63
2023-04-12T11:49:25.059Z,0.70
2023-04-12T11:52:07.675Z,0.83
2023-04-12T11:54:36.052Z,0.90
2023-04-12T11:57:05.498Z,0.55
2023-04-12T11:59:36.051Z,0.50
2023-04-12T12:02:17.129Z,0.30
2023-04-12T12:05:14.961Z,0.53
2023-04-12T12:10:51.992Z,0.30
2023-04-12T12:13:23.955Z,0.30
2023-04-12T12:15:56.062Z,0.30
2023-04-12T12:18:27.562Z,0.30
2023-04-12T12:20:58.196Z,0.60
2023-04-12T12:23:34.864Z,0.40
2023-04-12T12:26:18.585Z,0.30
2023-04-12T12:28:51.554Z,0.30
2023-04-12T12:31:21.717Z,0.30
2023-04-12T12:33:52.629Z,0.43
2023-04-12T12:39:14.744Z,0.35
2023-04-12T12:41:41.531Z,0.70
2023-04-12T12:44:08.702Z,0.27
2023-04-12T12:49:05.221Z,0.30
2023-04-12T12:51:34.330Z,0.10
2023-04-12T12:54:01.297Z,0.17
2023-04-12T12:56:27.963Z,0.30
2023-04-12T12:58:54.694Z,0.10
2023-04-12T13:01:21.447Z,0.20
2023-04-12T13:04:06.139Z,0.40
2023-04-12T13:07:02.173Z,0.20
2023-04-12T13:12:17.003Z,0.20
2023-04-12T13:14:44.027Z,0.10
2023-04-12T13:17:10.739Z,0.30
2023-04-12T13:19:37.466Z,0.30
2023-04-12T13:22:04.102Z,0.20
2023-04-12T13:24:33.244Z,0.35
2023-04-12T13:26:59.877Z,0.25
2023-04-12T13:29:27.493Z,0.40
2023-04-12T13:31:54.616Z,0.05
2023-04-12T13:34:22.136Z,0.10
2023-04-12T13:36:50.082Z,0.10
2023-04-12T13:39:16.920Z,0.20
2023-04-12T13:41:44.019Z,0.10
2023-04-12T13:44:18.360Z,0.17
2023-04-12T13:46:45.525Z,0.20
2023-04-12T13:49:32.065Z,0.15
2023-04-12T13:51:59.861Z,0.10
2023-04-12T13:54:26.599Z,0.10
2023-04-12T13:56:57.753Z,0.10
2023-04-12T13:59:25.448Z,0.10
2023-04-12T14:01:56.866Z,0.30
2023-04-12T14:04:25.166Z,0.10
2023-04-12T14:06:52.848Z,0.10
2023-04-12T14:09:25.072Z,0.10
2023-04-12T14:11:52.334Z,0.10
2023-04-12T14:14:18.948Z,0.10
2023-04-12T14:16:46.686Z,0.10
2023-04-12T14:19:13.344Z,0.10
2023-04-12T14:21:39.951Z,0.10
2023-04-12T14:24:06.614Z,0.20
2023-04-12T14:26:33.253Z,0.28
2023-04-12T14:29:00.930Z,0.10
2023-04-12T14:31:27.822Z,0.10
2023-04-12T14:33:54.532Z,0.50
2023-04-12T14:36:21.139Z,0.10
2023-04-12T14:38:47.692Z,0.10
2023-04-12T14:41:14.297Z,0.10
2023-04-12T14:43:41.236Z,0.20
2023-04-12T14:46:08.978Z,0.10
2023-04-12T14:48:36.899Z,0.10
2023-04-12T14:51:03.809Z,0.20
2023-04-12T14:53:31.281Z,0.17
2023-04-12T14:55:58.246Z,0.10
2023-04-12T14:58:26.074Z,0.10
2023-04-12T15:00:52.849Z,0.10
2023-04-12T15:03:20.998Z,0.10
2023-04-12T15:05:48.217Z,0.10
2023-04-12T15:08:14.826Z,0.20
2023-04-12T15:10:41.472Z,0.10
2023-04-12T15:13:08.142Z,0.10
2023-04-12T15:15:35.839Z,0.30
2023-04-12T15:18:03.461Z,0.20
2023-04-12T15:20:30.135Z,0.10
2023-04-12T15:22:57.823Z,0.30
2023-04-12T15:25:24.608Z,0.10
2023-04-12T15:27:51.369Z,0.10
2023-04-12T15:30:18.027Z,0.00
2023-04-12T15:32:45.970Z,0.10
2023-04-12T15:37:42.285Z,0.10
2023-04-12T15:40:15.855Z,0.10
2023-04-12T15:42:44.990Z,0.10
2023-04-12T15:45:11.878Z,0.10
2023-04-12T15:47:42.226Z,0.10
2023-04-12T15:50:30.492Z,0.30
2023-04-12T15:53:01.110Z,0.10
2023-04-12T15:55:27.772Z,0.20
2023-04-12T15:57:54.658Z,0.47
2023-04-12T16:00:26.358Z,0.10
2023-04-12T16:02:56.058Z,0.10
2023-04-12T16:05:26.669Z,0.00
2023-04-12T16:07:54.249Z,0.10
2023-04-12T16:10:24.737Z,0.15
2023-04-12T16:12:53.983Z,0.45
2023-04-12T16:15:21.081Z,0.10
2023-04-12T16:17:51.923Z,0.10
2023-04-12T16:20:25.499Z,0.10
2023-04-12T16:25:53.700Z,0.10
2023-04-12T16:28:25.718Z,0.83
2023-04-12T16:30:53.862Z,0.20
2023-04-12T16:33:27.156Z,0.13
2023-04-12T16:36:02.381Z,0.10
2023-04-12T16:38:29.826Z,0.55
2023-04-12T16:40:56.554Z,0.10
2023-04-12T16:43:23.271Z,0.10
2023-04-12T16:45:49.941Z,0.10
2023-04-12T16:48:16.764Z,0.10
2023-04-12T16:50:44.989Z,0.10
2023-04-12T16:53:11.997Z,0.10
2023-04-12T16:55:44.613Z,0.10
2023-04-12T16:58:11.427Z,0.10
2023-04-12T17:00:39.031Z,0.30
2023-04-12T17:03:09.138Z,0.10
2023-04-12T17:05:36.249Z,0.10
2023-04-12T17:08:05.976Z,0.20
2023-04-12T17:10:34.681Z,0.10
2023-04-12T17:13:02.127Z,0.10
2023-04-12T17:15:29.991Z,0.10
2023-04-12T17:18:04.355Z,0.10
2023-04-12T17:20:34.457Z,0.13
2023-04-12T17:23:30.213Z,0.13
2023-04-12T17:25:59.542Z,0.28
2023-04-12T17:28:27.408Z,0.10
2023-04-12T17:30:58.954Z,0.10
2023-04-12T17:33:26.425Z,0.20
2023-04-12T17:35:53.348Z,0.20
2023-04-12T17:38:22.889Z,0.10
2023-04-12T17:40:49.779Z,0.10
2023-04-12T17:43:16.579Z,0.20
2023-04-12T17:45:43.302Z,0.10
2023-04-12T17:51:33.664Z,0.20
2023-04-12T17:56:45.034Z,0.10
2023-04-12T17:59:11.753Z,0.40
2023-04-12T18:01:42.840Z,0.30
2023-04-12T18:04:09.851Z,0.35
2023-04-12T18:06:36.595Z,0.20
2023-04-12T18:09:07.457Z,0.20
2023-04-12T18:14:28.280Z,0.20
2023-04-12T18:16:54.975Z,0.50
2023-04-12T18:19:21.712Z,0.50
2023-04-12T18:21:48.584Z,0.60
2023-04-12T18:24:18.465Z,0.20
2023-04-12T18:26:47.145Z,0.30
2023-04-12T18:29:16.038Z,0.20
2023-04-12T18:31:42.920Z,0.20
2023-04-12T18:34:10.759Z,0.30
2023-04-12T18:36:37.588Z,0.30
2023-04-12T18:39:07.146Z,0.50
2023-04-12T18:41:34.226Z,0.32
2023-04-12T18:44:01.153Z,0.40
2023-04-12T18:46:29.019Z,0.40
2023-04-12T18:48:56.041Z,0.35
2023-04-12T18:51:23.224Z,0.50
2023-04-12T18:53:55.975Z,0.43
2023-04-12T18:56:24.569Z,0.60
2023-04-12T18:58:55.682Z,0.87
2023-04-12T19:01:24.356Z,0.70
2023-04-12T19:03:51.627Z,1.00
2023-04-12T19:06:18.633Z,1.17
2023-04-12T19:08:47.507Z,0.85
2023-04-12T19:11:14.922Z,0.90
2023-04-12T19:13:41.796Z,1.00
2023-04-12T19:16:08.709Z,0.80
2023-04-12T19:18:38.967Z,2.63
2023-04-12T19:21:07.611Z,2.60
2023-04-12T19:23:34.379Z,0.87
2023-04-12T19:26:01.230Z,1.02
2023-04-12T19:28:33.366Z,1.40
2023-04-12T19:31:03.756Z,1.40
2023-04-12T19:33:33.833Z,1.10
2023-04-12T19:36:00.743Z,1.50
2023-04-12T19:38:27.486Z,2.10
2023-04-12T19:40:54.852Z,1.08
2023-04-12T19:43:21.848Z,1.92
2023-04-12T19:45:48.711Z,1.70
2023-04-12T19:48:18.158Z,1.30
2023-04-12T19:50:48.495Z,1.30
2023-04-12T19:53:18.243Z,1.30
2023-04-12T19:55:45.391Z,1.42
2023-04-12T19:58:13.634Z,1.52
2023-04-12T20:03:31.756Z,1.42
2023-04-12T20:06:03.440Z,2.15
2023-04-12T20:08:30.230Z,1.30
2023-04-12T20:10:56.924Z,1.80
2023-04-12T20:13:23.722Z,1.17
2023-04-12T20:15:51.201Z,1.20
2023-04-12T20:18:18.129Z,1.15
2023-04-12T20:20:45.142Z,1.20
2023-04-12T20:23:13.942Z,1.38
2023-04-12T20:25:41.668Z,1.60
2023-04-12T20:28:09.107Z,1.20
2023-04-12T20:30:37.416Z,1.58
2023-04-12T20:33:04.497Z,1.55
2023-04-12T20:35:31.515Z,1.40
2023-04-12T20:37:58.222Z,0.97
2023-04-12T20:40:27.363Z,1.15
2023-04-12T20:42:54.085Z,1.52
2023-04-12T20:45:24.217Z,1.00
2023-04-12T20:47:51.182Z,1.20
2023-04-12T20:50:23.076Z,0.90
2023-04-12T20:52:52.054Z,0.90
2023-04-12T20:55:19.049Z,1.10
2023-04-12T20:57:45.693Z,0.90
2023-04-12T21:00:17.362Z,0.90
2023-04-12T21:02:47.259Z,0.70
2023-04-12T21:05:17.018Z,0.65
2023-04-12T21:07:43.763Z,0.68
2023-04-12T21:10:12.410Z,0.70
2023-04-12T21:12:40.033Z,0.30
2023-04-12T21:15:08.224Z,0.37
2023-04-12T21:17:36.975Z,0.30
2023-04-12T21:20:11.539Z,0.22
2023-04-12T21:22:38.388Z,0.47
2023-04-12T21:25:10.846Z,0.20
2023-04-12T21:27:37.505Z,0.30
2023-04-12T21:30:04.501Z,0.90
2023-04-12T21:32:32.528Z,0.30
2023-04-12T21:35:02.248Z,0.30
2023-04-12T21:37:28.879Z,0.20
2023-04-12T21:39:55.484Z,0.47
2023-04-12T21:42:24.604Z,0.30
2023-04-12T21:44:51.208Z,0.22
2023-04-12T21:47:19.425Z,0.30
2023-04-12T21:49:45.999Z,1.10
2023-04-12T21:52:12.551Z,0.30
2023-04-12T21:54:39.155Z,0.20
2023-04-12T21:57:06.209Z,0.20
2023-04-12T21:59:32.852Z,0.20
2023-04-12T22:01:59.566Z,0.20
2023-04-12T22:04:26.269Z,0.30
2023-04-12T22:06:53.048Z,0.10
2023-04-12T22:09:20.336Z,0.10
2023-04-12T22:11:49.187Z,0.10
2023-04-12T22:14:15.830Z,0.10
2023-04-12T22:16:42.448Z,0.10
2023-04-12T22:19:09.338Z,0.10
2023-04-12T22:21:35.918Z,0.10
2023-04-12T22:24:02.496Z,0.10
2023-04-12T22:26:29.236Z,0.17
2023-04-12T22:28:55.849Z,0.10
2023-04-12T22:31:22.967Z,0.10
2023-04-12T22:33:50.072Z,0.10
2023-04-12T22:36:18.768Z,0.10
2023-04-12T22:38:47.603Z,0.10
2023-04-12T22:41:16.202Z,0.10
2023-04-12T22:43:42.783Z,0.10
2023-04-12T22:46:16.272Z,0.00
2023-04-12T22:48:44.167Z,0.30
2023-04-12T22:51:11.427Z,0.10
2023-04-12T22:53:39.169Z,0.20
2023-04-12T22:56:06.277Z,0.13
2023-04-12T22:58:32.879Z,0.10
2023-04-12T23:00:59.485Z,0.10
2023-04-12T23:03:26.078Z,0.20
2023-04-12T23:05:52.685Z,0.10
2023-04-12T23:08:22.213Z,0.10
2023-04-12T23:10:49.696Z,0.10
2023-04-12T23:13:16.230Z,0.10
2023-04-12T23:15:42.857Z,0.10
2023-04-12T23:18:10.604Z,0.10
2023-04-12T23:20:38.392Z,0.10
2023-04-12T23:23:06.622Z,0.10
2023-04-12T23:25:41.676Z,0.10
2023-04-12T23:28:13.449Z,0.10
2023-04-12T23:30:45.909Z,0.20
2023-04-12T23:33:12.709Z,0.00
2023-04-12T23:35:41.158Z,0.10
2023-04-12T23:38:09.496Z,0.10
2023-04-12T23:40:36.312Z,0.10
2023-04-12T23:43:02.803Z,0.10
2023-04-12T23:45:29.310Z,0.22
2023-04-12T23:47:55.943Z,0.10
2023-04-12T23:50:22.604Z,0.10
2023-04-12T23:52:49.332Z,0.20
2023-04-12T23:55:16.169Z,0.10
2023-04-12T23:57:42.881Z,0.10
